Time;durP1;ratioP1;P1;durP2;ratioP2;P2;SDS_P1;SDS_P2;PMS_P1;PMS_P2;Temp;Humidity;BMP_temperature;BMP_pressure;BME280_temperature;BME280_humidity;BME280_pressure;Samples;Min_cycle;Max_cycle;Signal;HPM_P1;HPM_P2
2021/10/18 00:01:07;;;;;;;7.10;6.50;;;8.70;99.90;;;;;;5010928;28;20264;-70
2021/10/18 00:03:33;;;;;;;8.13;6.70;;;8.70;99.90;;;;;;5011146;28;20171;-71
2021/10/18 00:05:58;;;;;;;9.13;6.03;;;8.80;99.90;;;;;;5011044;28;20427;-70
2021/10/18 00:08:24;;;;;;;8.37;7.07;;;8.70;99.90;;;;;;5012185;28;20419;-70
2021/10/18 00:10:50;;;;;;;7.63;6.60;;;8.70;99.90;;;;;;5011379;27;20195;-71
2021/10/18 00:13:16;;;;;;;7.20;6.33;;;8.70;99.90;;;;;;5013410;28;20499;-68
2021/10/18 00:15:41;;;;;;;7.70;6.50;;;8.60;99.90;;;;;;5011179;28;20282;-70
2021/10/18 00:18:07;;;;;;;7.63;6.70;;;8.40;99.90;;;;;;5011277;28;20418;-70
2021/10/18 00:20:33;;;;;;;7.37;6.67;;;8.30;99.90;;;;;;5011947;28;20252;-70
2021/10/18 00:22:59;;;;;;;8.00;7.00;;;8.20;99.90;;;;;;5011178;28;20175;-70
2021/10/18 00:25:25;;;;;;;9.13;6.83;;;8.10;99.90;;;;;;5010682;28;20430;-70
2021/10/18 00:27:50;;;;;;;18.50;7.10;;;8.20;99.90;;;;;;5012092;28;20254;-70
2021/10/18 00:30:16;;;;;;;7.53;6.50;;;8.20;99.90;;;;;;5013506;28;20225;-70
2021/10/18 00:32:42;;;;;;;7.27;6.67;;;8.30;99.90;;;;;;5012110;28;20482;-70
2021/10/18 00:35:08;;;;;;;7.20;6.50;;;8.30;99.90;;;;;;5012062;28;20617;-70
2021/10/18 00:37:33;;;;;;;7.13;6.43;;;8.40;99.90;;;;;;5011840;28;20411;-70
2021/10/18 00:39:59;;;;;;;8.13;7.10;;;8.40;99.90;;;;;;5013685;28;20490;-70
2021/10/18 00:42:25;;;;;;;8.10;6.87;;;8.40;99.90;;;;;;5020436;28;20211;-70
2021/10/18 00:44:50;;;;;;;10.00;7.30;;;8.40;99.90;;;;;;5031346;28;20178;-70
2021/10/18 00:47:18;;;;;;;7.80;7.10;;;8.40;99.90;;;;;;5031835;28;20167;-70
2021/10/18 00:49:44;;;;;;;6.83;6.23;;;8.40;99.90;;;;;;5031468;28;20194;-70
2021/10/18 00:52:11;;;;;;;6.67;5.97;;;8.40;99.90;;;;;;5030120;27;20417;-71
2021/10/18 00:54:37;;;;;;;8.33;7.13;;;8.40;99.90;;;;;;5037792;28;20184;-70
2021/10/18 00:57:03;;;;;;;8.33;7.30;;;8.40;99.90;;;;;;5032137;28;20502;-70
2021/10/18 00:59:28;;;;;;;8.73;7.20;;;8.40;99.90;;;;;;5035029;28;20794;-70
2021/10/18 01:01:54;;;;;;;7.53;6.63;;;8.30;99.90;;;;;;5034895;28;20164;-70
2021/10/18 01:04:21;;;;;;;10.40;7.03;;;8.20;99.90;;;;;;5033382;28;20183;-70
2021/10/18 01:06:46;;;;;;;7.47;6.70;;;8.20;99.90;;;;;;5035251;28;20221;-70
2021/10/18 01:09:12;;;;;;;8.07;6.90;;;8.20;99.90;;;;;;5035162;28;20405;-70
2021/10/18 01:11:37;;;;;;;8.37;6.50;;;8.20;99.90;;;;;;5034265;27;20193;-70
2021/10/18 01:14:03;;;;;;;7.70;7.00;;;8.20;99.90;;;;;;5032541;28;20179;-70
2021/10/18 01:16:28;;;;;;;7.40;6.67;;;8.20;99.90;;;;;;5034698;28;20572;-70
2021/10/18 01:18:54;;;;;;;8.90;6.80;;;8.20;99.90;;;;;;5042735;28;20203;-70
2021/10/18 01:21:19;;;;;;;8.60;6.83;;;8.20;99.90;;;;;;5033891;28;20236;-70
2021/10/18 01:23:45;;;;;;;7.53;6.87;;;8.10;99.90;;;;;;5033509;28;20270;-70
2021/10/18 01:26:10;;;;;;;10.67;7.87;;;8.00;99.90;;;;;;5015455;28;20207;-70
2021/10/18 01:28:36;;;;;;;9.27;6.60;;;8.00;99.90;;;;;;5013747;28;20613;-70
2021/10/18 01:31:02;;;;;;;8.17;7.30;;;8.00;99.90;;;;;;5014161;28;20181;-70
2021/10/18 01:33:27;;;;;;;7.83;7.13;;;8.00;99.90;;;;;;5013620;28;20176;-70
2021/10/18 01:35:53;;;;;;;9.90;6.80;;;8.10;99.90;;;;;;5014701;28;20260;-70
2021/10/18 01:38:19;;;;;;;7.87;6.33;;;8.10;99.90;;;;;;5014076;28;20225;-70
2021/10/18 01:40:44;;;;;;;7.73;7.07;;;8.20;99.90;;;;;;5012860;27;20648;-71
2021/10/18 01:43:10;;;;;;;7.37;6.70;;;8.20;99.90;;;;;;5013674;28;20255;-70
2021/10/18 01:45:35;;;;;;;9.67;7.50;;;8.20;99.90;;;;;;5014166;28;20202;-70
2021/10/18 01:48:01;;;;;;;8.73;6.93;;;8.20;99.90;;;;;;5013811;28;20172;-70
2021/10/18 01:50:27;;;;;;;9.60;7.13;;;8.20;99.90;;;;;;5012354;28;20195;-70
2021/10/18 01:52:54;;;;;;;8.10;7.30;;;8.20;99.90;;;;;;5012328;27;20196;-70
2021/10/18 01:55:21;;;;;;;10.30;7.93;;;8.20;99.90;;;;;;5011710;28;20196;-71
2021/10/18 01:57:48;;;;;;;7.53;6.57;;;8.20;99.90;;;;;;5013026;28;20430;-70
2021/10/18 02:00:14;;;;;;;7.93;7.13;;;8.10;99.90;;;;;;5011689;28;20466;-71
2021/10/18 02:02:41;;;;;;;10.30;9.30;;;8.20;99.90;;;;;;5011586;28;20424;-70
2021/10/18 02:05:07;;;;;;;9.10;7.60;;;8.20;99.90;;;;;;5010084;28;20426;-70
2021/10/18 02:07:32;;;;;;;7.90;7.20;;;8.20;99.90;;;;;;5012451;28;20463;-70
2021/10/18 02:09:59;;;;;;;8.83;7.57;;;8.20;99.90;;;;;;5011552;28;20206;-70
2021/10/18 02:12:26;;;;;;;12.07;7.30;;;8.20;99.90;;;;;;5011645;27;20610;-71
2021/10/18 02:14:51;;;;;;;7.67;6.87;;;8.20;99.90;;;;;;5011595;28;20422;-70
2021/10/18 02:17:17;;;;;;;9.40;6.53;;;8.10;99.90;;;;;;5013377;28;20414;-70
2021/10/18 02:19:43;;;;;;;8.55;7.75;;;8.10;99.90;;;;;;5010634;28;20439;-70
2021/10/18 02:22:09;;;;;;;8.30;7.53;;;8.10;99.90;;;;;;5011526;28;20636;-70
2021/10/18 02:24:34;;;;;;;7.90;7.07;;;8.10;99.90;;;;;;5011285;28;20182;-70
2021/10/18 02:27:00;;;;;;;6.87;6.20;;;8.00;99.90;;;;;;5012608;28;20287;-70
2021/10/18 02:29:25;;;;;;;7.47;6.70;;;7.90;99.90;;;;;;5012002;28;20176;-70
2021/10/18 02:31:51;;;;;;;8.40;7.10;;;7.90;99.90;;;;;;5011391;28;20172;-70
2021/10/18 02:34:16;;;;;;;7.67;6.87;;;7.90;99.90;;;;;;5011275;27;20179;-70
2021/10/18 02:36:42;;;;;;;8.57;7.77;;;7.90;99.90;;;;;;5010257;28;20578;-71
2021/10/18 02:39:07;;;;;;;11.20;7.77;;;7.90;99.90;;;;;;5012007;28;20644;-70
2021/10/18 02:41:33;;;;;;;8.27;7.40;;;7.90;99.90;;;;;;5012544;28;20221;-71
2021/10/18 02:43:58;;;;;;;7.40;6.70;;;7.70;99.90;;;;;;5029640;28;20178;-70
2021/10/18 02:46:24;;;;;;;10.17;7.60;;;7.50;99.90;;;;;;5030697;27;20203;-70
2021/10/18 02:48:49;;;;;;;8.60;7.43;;;7.40;99.90;;;;;;4992069;28;1121703;-70
2021/10/18 02:51:15;;;;;;;8.53;7.60;;;7.30;99.90;;;;;;5032301;28;20206;-70
2021/10/18 02:53:40;;;;;;;8.33;7.53;;;7.30;99.90;;;;;;5030522;28;20183;-70
2021/10/18 02:56:06;;;;;;;9.90;7.27;;;7.30;99.90;;;;;;5031833;28;20695;-70
2021/10/18 02:58:32;;;;;;;8.53;7.60;;;7.40;99.90;;;;;;5031648;28;20220;-71
2021/10/18 03:00:57;;;;;;;6.93;6.33;;;7.50;99.90;;;;;;5031680;27;20426;-71
2021/10/18 03:03:23;;;;;;;9.23;7.77;;;7.60;99.90;;;;;;5029985;28;20199;-69
2021/10/18 03:05:48;;;;;;;7.73;6.93;;;7.60;99.90;;;;;;5031446;28;20229;-71
2021/10/18 03:08:14;;;;;;;10.37;7.30;;;7.70;99.90;;;;;;5031819;28;20213;-70
2021/10/18 03:10:42;;;;;;;8.10;7.30;;;7.80;99.90;;;;;;5031715;27;20195;-71
2021/10/18 03:13:09;;;;;;;6.93;6.20;;;7.80;99.90;;;;;;5031655;28;20505;-70
2021/10/18 03:15:34;;;;;;;9.00;7.00;;;7.90;99.90;;;;;;5030221;28;20521;-70
2021/10/18 03:18:00;;;;;;;8.17;6.83;;;7.90;99.90;;;;;;5031499;28;20492;-70
2021/10/18 03:20:26;;;;;;;8.23;6.90;;;7.90;99.90;;;;;;5030281;28;20494;-70
2021/10/18 03:22:53;;;;;;;10.87;7.03;;;7.90;99.90;;;;;;5031316;28;20177;-70
2021/10/18 03:25:19;;;;;;;8.63;7.27;;;8.00;99.90;;;;;;5029432;27;20282;-70
2021/10/18 03:27:45;;;;;;;7.57;6.87;;;8.00;99.90;;;;;;5031489;28;20401;-70
2021/10/18 03:30:11;;;;;;;7.20;6.50;;;8.00;99.90;;;;;;5031769;28;20417;-70
2021/10/18 03:32:37;;;;;;;8.23;7.37;;;8.00;99.90;;;;;;5031030;28;20182;-70
2021/10/18 03:35:03;;;;;;;8.50;7.70;;;8.10;99.90;;;;;;5029272;27;20429;-70
2021/10/18 03:37:29;;;;;;;8.70;6.57;;;8.00;99.90;;;;;;5031355;28;20511;-71
2021/10/18 03:39:54;;;;;;;7.40;6.60;;;8.00;99.90;;;;;;5031459;28;20458;-70
2021/10/18 03:42:20;;;;;;;8.00;7.10;;;8.10;99.90;;;;;;5031032;28;20179;-71
2021/10/18 03:44:45;;;;;;;7.97;7.07;;;8.10;99.90;;;;;;5030884;28;20163;-70
2021/10/18 03:47:11;;;;;;;7.97;7.17;;;8.00;99.90;;;;;;5029577;27;20203;-70
2021/10/18 03:49:36;;;;;;;7.87;7.00;;;8.00;99.90;;;;;;5031185;28;20190;-70
2021/10/18 03:52:03;;;;;;;8.50;7.63;;;8.00;99.90;;;;;;5031269;28;20249;-71
2021/10/18 03:54:29;;;;;;;7.83;7.03;;;7.90;99.90;;;;;;5029494;28;20235;-70
2021/10/18 03:56:54;;;;;;;8.20;7.17;;;7.90;99.90;;;;;;5030999;28;20832;-70
2021/10/18 03:59:20;;;;;;;9.03;7.90;;;7.90;99.90;;;;;;5030738;27;20232;-70
2021/10/18 04:01:45;;;;;;;8.77;7.77;;;7.80;99.90;;;;;;5031464;28;20191;-70
2021/10/18 04:04:11;;;;;;;8.00;7.20;;;7.90;99.90;;;;;;5029450;28;20278;-70
2021/10/18 04:06:36;;;;;;;7.97;6.83;;;7.90;99.90;;;;;;5033113;28;20210;-70
2021/10/18 04:09:02;;;;;;;8.20;7.37;;;7.90;99.90;;;;;;5035866;28;20591;-70
2021/10/18 04:11:28;;;;;;;8.03;7.23;;;7.80;99.90;;;;;;5030608;28;20277;-70
2021/10/18 04:13:53;;;;;;;8.13;6.73;;;7.80;99.90;;;;;;5030661;28;20182;-70
2021/10/18 04:16:19;;;;;;;8.47;6.93;;;7.90;99.90;;;;;;5028641;27;20298;-70
2021/10/18 04:18:44;;;;;;;11.20;7.70;;;7.90;99.90;;;;;;5030936;28;20211;-70
2021/10/18 04:21:10;;;;;;;7.80;7.03;;;7.90;99.90;;;;;;5031094;28;20210;-70
2021/10/18 04:23:35;;;;;;;8.27;7.30;;;7.90;99.90;;;;;;5029608;28;20175;-70
2021/10/18 04:26:01;;;;;;;9.37;7.37;;;7.90;99.90;;;;;;5026289;28;20204;-70
2021/10/18 04:28:27;;;;;;;7.53;6.83;;;7.90;99.90;;;;;;5011699;28;20501;-70
2021/10/18 04:30:53;;;;;;;8.80;7.90;;;7.90;99.90;;;;;;5015006;28;20199;-70
2021/10/18 04:33:19;;;;;;;8.60;7.63;;;7.90;99.90;;;;;;5013635;28;20425;-70
2021/10/18 04:35:45;;;;;;;9.60;8.27;;;7.90;99.90;;;;;;5009205;28;20515;-70
2021/10/18 04:38:11;;;;;;;9.87;8.87;;;7.80;99.90;;;;;;5011924;28;20430;-70
2021/10/18 04:40:37;;;;;;;9.30;8.33;;;7.80;99.90;;;;;;5010717;28;20467;-69
2021/10/18 04:43:02;;;;;;;10.20;7.80;;;7.80;99.90;;;;;;5024214;28;20178;-69
2021/10/18 04:45:28;;;;;;;11.00;8.20;;;7.70;99.90;;;;;;5030179;27;20229;-69
2021/10/18 04:47:53;;;;;;;10.90;8.97;;;7.70;99.90;;;;;;5031235;28;20167;-69
2021/10/18 04:50:21;;;;;;;9.83;7.80;;;7.60;99.90;;;;;;5031688;28;20194;-69
2021/10/18 04:52:46;;;;;;;9.83;7.80;;;7.70;99.90;;;;;;5030015;28;20176;-69
2021/10/18 04:55:13;;;;;;;10.10;8.10;;;7.70;99.90;;;;;;5030786;28;20433;-69
2021/10/18 04:57:53;;;;;;;8.43;7.63;;;7.70;99.90;;;;;;5030019;28;20179;-69
2021/10/18 05:00:19;;;;;;;8.87;8.00;;;7.80;99.90;;;;;;5030070;27;20477;-69
2021/10/18 05:02:44;;;;;;;10.20;8.43;;;7.80;99.90;;;;;;5028565;28;20422;-69
2021/10/18 05:05:10;;;;;;;8.90;7.87;;;7.70;99.90;;;;;;5030227;28;20453;-70
2021/10/18 05:07:35;;;;;;;8.40;7.60;;;7.70;99.90;;;;;;5030322;28;20179;-70
2021/10/18 05:10:01;;;;;;;10.37;7.90;;;7.70;99.90;;;;;;5031201;28;20183;-69
2021/10/18 05:12:26;;;;;;;12.50;7.60;;;7.70;99.90;;;;;;5030125;28;20231;-70
2021/10/18 05:14:52;;;;;;;9.83;7.90;;;7.80;99.90;;;;;;5028554;27;20195;-70
2021/10/18 05:17:17;;;;;;;10.20;8.90;;;7.70;99.90;;;;;;5030296;28;20175;-70
2021/10/18 05:19:43;;;;;;;9.67;7.60;;;7.70;99.90;;;;;;5030256;28;20679;-70
2021/10/18 05:22:08;;;;;;;8.97;7.97;;;7.70;99.90;;;;;;5030058;28;20183;-70
2021/10/18 05:24:34;;;;;;;9.43;8.23;;;7.70;99.90;;;;;;5028216;28;20592;-70
2021/10/18 05:26:59;;;;;;;10.20;7.70;;;7.70;99.90;;;;;;5030045;28;20198;-70
2021/10/18 05:29:26;;;;;;;10.40;9.40;;;7.70;99.90;;;;;;5028767;28;20466;-70
2021/10/18 05:31:52;;;;;;;10.17;8.00;;;7.70;99.90;;;;;;5030088;28;20192;-70
2021/10/18 05:34:17;;;;;;;11.17;8.70;;;7.70;99.90;;;;;;5029498;28;20458;-70
2021/10/18 05:36:43;;;;;;;10.30;8.77;;;7.60;99.90;;;;;;5028237;28;20449;-70
2021/10/18 05:39:08;;;;;;;9.67;7.77;;;7.60;99.90;;;;;;5030991;28;20259;-70
2021/10/18 05:41:34;;;;;;;10.90;8.43;;;7.60;99.90;;;;;;5033838;27;20261;-70
2021/10/18 05:44:00;;;;;;;8.87;8.00;;;7.70;99.90;;;;;;5035677;28;20514;-70
2021/10/18 05:46:25;;;;;;;11.03;8.57;;;7.70;99.90;;;;;;5034692;28;20558;-70
2021/10/18 05:48:51;;;;;;;13.27;8.60;;;7.70;99.90;;;;;;5032827;28;20183;-71
2021/10/18 05:51:18;;;;;;;12.73;9.27;;;7.70;99.90;;;;;;5015526;27;20288;-70
2021/10/18 05:53:43;;;;;;;11.03;9.23;;;7.70;99.90;;;;;;5074724;27;20236;-71
2021/10/18 05:56:09;;;;;;;11.90;9.90;;;7.80;99.90;;;;;;5084863;27;20970;-71
2021/10/18 05:58:35;;;;;;;10.17;9.17;;;7.70;99.90;;;;;;5044268;27;20214;-70
2021/10/18 06:01:00;;;;;;;10.20;8.63;;;7.70;99.90;;;;;;5077808;27;20490;-70
2021/10/18 06:03:26;;;;;;;10.33;8.83;;;7.70;99.90;;;;;;5099144;27;20247;-70
2021/10/18 06:05:52;;;;;;;15.50;9.67;;;7.80;99.90;;;;;;5024590;27;20222;-70
2021/10/18 06:08:18;;;;;;;10.97;9.27;;;7.80;99.90;;;;;;5020350;28;20226;-70
2021/10/18 06:10:44;;;;;;;11.93;8.83;;;7.80;99.90;;;;;;5010987;27;20485;-70
2021/10/18 06:13:10;;;;;;;10.77;9.67;;;7.80;99.90;;;;;;5037445;28;20205;-70
2021/10/18 06:15:36;;;;;;;15.63;9.93;;;7.70;99.90;;;;;;5049940;27;20206;-70
2021/10/18 06:18:11;;;;;;;12.57;10.03;;;7.50;99.90;;;;;;5035046;27;20603;-72
2021/10/18 06:20:45;;;;;;;16.00;10.87;;;7.40;99.90;;;;;;5010036;27;20472;-70
2021/10/18 06:23:13;;;;;;;13.97;11.53;;;7.30;99.90;;;;;;5010042;28;20438;-70
2021/10/18 06:25:39;;;;;;;12.83;10.50;;;7.30;99.90;;;;;;5011091;27;20480;-71
2021/10/18 06:28:05;;;;;;;11.70;10.00;;;7.30;99.90;;;;;;5011589;28;20967;-70
2021/10/18 06:30:31;;;;;;;13.03;11.00;;;7.40;99.90;;;;;;5043244;28;20440;-70
2021/10/18 06:32:57;;;;;;;15.33;10.87;;;7.40;99.90;;;;;;5050004;27;20453;-70
2021/10/18 06:35:23;;;;;;;15.03;12.90;;;7.50;99.90;;;;;;5045412;28;20797;-69
2021/10/18 06:37:49;;;;;;;20.20;14.50;;;7.60;99.90;;;;;;5029766;27;20259;-70
2021/10/18 06:40:15;;;;;;;17.80;15.07;;;7.60;99.90;;;;;;5016462;28;20478;-70
2021/10/18 06:42:41;;;;;;;18.40;15.37;;;7.70;99.90;;;;;;5013841;27;20211;-70
2021/10/18 06:45:07;;;;;;;20.43;15.00;;;7.70;99.90;;;;;;5011368;28;20424;-71
2021/10/18 06:47:33;;;;;;;18.30;14.50;;;7.80;99.90;;;;;;5011840;27;20545;-70
2021/10/18 06:49:59;;;;;;;18.33;14.20;;;7.80;99.90;;;;;;5011233;28;20482;-70
2021/10/18 06:52:29;;;;;;;18.83;15.27;;;7.90;99.90;;;;;;5014036;27;20249;-70
2021/10/18 06:54:55;;;;;;;19.43;14.30;;;7.90;99.90;;;;;;5013777;28;20963;-70
2021/10/18 06:57:20;;;;;;;17.07;12.63;;;8.00;99.90;;;;;;5016983;27;20467;-70
2021/10/18 06:59:46;;;;;;;16.17;13.30;;;8.00;99.90;;;;;;5011061;28;20472;-70
2021/10/18 07:02:12;;;;;;;13.10;11.70;;;8.10;99.90;;;;;;5026106;27;20697;-70
2021/10/18 07:04:39;;;;;;;13.90;11.70;;;8.10;99.90;;;;;;5045575;28;20217;-71
2021/10/18 07:07:05;;;;;;;14.23;11.80;;;8.10;99.90;;;;;;5031152;27;20464;-71
2021/10/18 07:09:31;;;;;;;14.47;11.80;;;8.10;99.90;;;;;;5030871;28;20460;-70
2021/10/18 07:11:57;;;;;;;17.83;12.30;;;8.10;99.90;;;;;;5029881;28;20465;-70
2021/10/18 07:14:23;;;;;;;15.50;12.23;;;8.20;99.90;;;;;;5033436;27;20179;-71
2021/10/18 07:16:48;;;;;;;17.63;12.40;;;8.20;99.90;;;;;;5032653;28;20215;-70
2021/10/18 07:19:14;;;;;;;15.80;12.40;;;8.30;99.90;;;;;;5036782;28;20453;-69
2021/10/18 07:21:41;;;;;;;14.50;12.37;;;8.40;99.90;;;;;;5034532;28;20282;-70
2021/10/18 07:24:07;;;;;;;17.17;13.73;;;8.40;99.90;;;;;;5032180;28;20269;-70
2021/10/18 07:26:33;;;;;;;20.33;12.77;;;8.50;99.90;;;;;;5031707;28;20430;-70
2021/10/18 07:28:59;;;;;;;15.80;12.20;;;8.60;99.90;;;;;;5031832;28;20179;-70
2021/10/18 07:31:25;;;;;;;14.03;11.50;;;8.60;99.90;;;;;;5031288;28;20195;-70
2021/10/18 07:33:50;;;;;;;15.57;12.27;;;8.70;99.90;;;;;;5029792;28;20461;-70
2021/10/18 07:36:24;;;;;;;14.90;12.20;;;8.80;99.90;;;;;;5031411;28;20208;-69
2021/10/18 07:38:51;;;;;;;15.50;11.70;;;8.90;99.90;;;;;;5027876;27;20260;-69
2021/10/18 07:41:17;;;;;;;14.03;12.33;;;9.00;99.90;;;;;;5031203;28;20502;-69
2021/10/18 07:43:43;;;;;;;18.83;12.43;;;9.00;99.90;;;;;;5028547;28;20997;-70
2021/10/18 07:46:08;;;;;;;17.90;13.20;;;9.10;99.90;;;;;;5031239;28;20465;-70
2021/10/18 07:48:34;;;;;;;17.40;11.83;;;9.20;99.90;;;;;;5031293;28;20171;-70
2021/10/18 07:50:59;;;;;;;13.50;11.97;;;9.30;99.90;;;;;;5031264;28;20162;-70
2021/10/18 07:53:25;;;;;;;18.07;14.30;;;9.30;99.90;;;;;;5029278;28;20178;-70
2021/10/18 07:55:50;;;;;;;13.80;11.93;;;9.40;99.90;;;;;;5029461;28;20208;-70
2021/10/18 07:58:16;;;;;;;16.57;12.70;;;9.50;99.90;;;;;;5031122;28;20256;-70
2021/10/18 08:00:42;;;;;;;16.13;12.50;;;9.60;99.90;;;;;;5031203;28;20206;-71
2021/10/18 08:03:07;;;;;;;17.80;12.27;;;9.70;99.90;;;;;;5034733;28;20666;-70
2021/10/18 08:05:33;;;;;;;16.17;13.40;;;9.80;99.90;;;;;;5021635;28;20281;-71
2021/10/18 08:07:59;;;;;;;17.93;12.80;;;9.80;99.90;;;;;;5011234;28;20177;-71
2021/10/18 08:10:25;;;;;;;14.70;12.63;;;9.90;99.90;;;;;;5011180;28;20920;-70
2021/10/18 08:12:56;;;;;;;16.27;11.90;;;10.00;99.90;;;;;;5011341;28;20179;-70
2021/10/18 08:15:24;;;;;;;14.30;12.80;;;10.10;99.90;;;;;;5012239;28;20446;-70
2021/10/18 08:17:49;;;;;;;15.93;12.83;;;10.20;99.90;;;;;;5010808;28;20412;-71
2021/10/18 08:20:16;;;;;;;15.10;13.23;;;10.20;99.90;;;;;;5011082;28;20559;-71
2021/10/18 08:22:42;;;;;;;14.90;12.07;;;10.30;99.90;;;;;;5011184;28;20528;-71
2021/10/18 08:25:08;;;;;;;15.50;12.40;;;10.40;99.90;;;;;;5011718;28;20406;-70
2021/10/18 08:27:34;;;;;;;14.13;12.43;;;10.60;99.90;;;;;;5012424;28;20652;-71
2021/10/18 08:30:00;;;;;;;14.60;12.03;;;10.70;99.90;;;;;;5011796;28;20418;-70
2021/10/18 08:32:25;;;;;;;15.97;12.70;;;10.80;99.90;;;;;;5011715;28;20533;-70
2021/10/18 08:34:51;;;;;;;15.03;12.47;;;11.00;99.90;;;;;;5011740;28;20164;-70
2021/10/18 08:37:17;;;;;;;18.67;12.30;;;11.00;99.90;;;;;;5012299;28;20681;-70
2021/10/18 08:42:40;;;;;;;14.10;11.80;;;11.30;99.90;;;;;;5016749;27;20193;-69
2021/10/18 08:45:06;;;;;;;13.23;10.50;;;11.30;99.90;;;;;;5030569;28;20394;-71
2021/10/18 08:47:32;;;;;;;14.60;12.47;;;11.40;99.90;;;;;;5030814;28;20405;-71
2021/10/18 08:49:58;;;;;;;10.67;9.37;;;11.50;99.90;;;;;;5030019;28;20444;-71
2021/10/18 08:52:23;;;;;;;14.77;10.97;;;11.50;99.90;;;;;;5029409;28;20179;-70
2021/10/18 08:54:49;;;;;;;15.00;11.53;;;11.60;99.90;;;;;;5030322;28;20688;-70
2021/10/18 08:57:14;;;;;;;11.90;10.03;;;11.70;99.90;;;;;;5030722;28;20183;-70
2021/10/18 08:59:40;;;;;;;12.63;10.00;;;11.80;99.90;;;;;;5030055;28;20286;-70
2021/10/18 09:02:05;;;;;;;13.33;10.00;;;11.90;99.90;;;;;;5030668;28;20258;-70
2021/10/18 09:04:37;;;;;;;12.97;10.73;;;11.90;99.90;;;;;;5018156;28;20660;-71
2021/10/18 09:07:16;;;;;;;12.37;9.73;;;11.90;99.90;;;;;;5011222;28;20536;-70
2021/10/18 09:09:53;;;;;;;14.37;11.17;;;12.10;99.90;;;;;;5010560;28;20419;-71
2021/10/18 09:12:27;;;;;;;12.17;10.90;;;12.10;99.90;;;;;;5010159;28;20802;-71
2021/10/18 09:14:54;;;;;;;13.03;9.67;;;12.10;99.90;;;;;;5024404;28;20741;-70
2021/10/18 09:17:35;;;;;;;8.67;7.87;;;12.20;99.90;;;;;;5030922;28;20402;-70
2021/10/18 09:20:21;;;;;;;11.70;9.30;;;12.30;99.90;;;;;;5033431;28;20930;-71
2021/10/18 09:22:46;;;;;;;12.40;8.40;;;12.40;99.90;;;;;;5033363;28;20425;-71
2021/10/18 09:25:29;;;;;;;12.87;8.13;;;12.40;99.90;;;;;;5031708;28;20476;-71
2021/10/18 09:28:16;;;;;;;11.17;9.03;;;12.40;99.90;;;;;;5033944;28;20186;-71
2021/10/18 09:30:45;;;;;;;9.77;8.57;;;12.60;99.90;;;;;;5033635;28;20412;-71
2021/10/18 09:33:25;;;;;;;8.70;7.80;;;12.60;99.90;;;;;;5033422;28;20426;-71
2021/10/18 09:35:53;;;;;;;10.37;8.60;;;12.60;99.90;;;;;;5031794;28;20436;-70
2021/10/18 09:38:21;;;;;;;8.00;6.90;;;12.70;99.90;;;;;;5033451;28;20795;-70
2021/10/18 09:40:48;;;;;;;9.13;7.37;;;12.80;99.90;;;;;;5033064;27;20977;-71
2021/10/18 09:43:21;;;;;;;8.63;7.30;;;12.80;99.90;;;;;;5033673;28;20409;-71
2021/10/18 10:53:18;;;;;;;6.33;5.70;;;14.40;99.90;;;;;;5022436;28;20508;-69
2021/10/18 10:55:44;;;;;;;10.40;6.40;;;14.50;99.90;;;;;;5028828;28;20446;-72
2021/10/18 10:58:49;;;;;;;11.00;6.43;;;14.50;99.90;;;;;;5027220;27;20912;-71
2021/10/18 11:01:52;;;;;;;10.50;5.73;;;14.60;99.90;;;;;;4971609;28;20198;-70
2021/10/18 11:04:30;;;;;;;63.00;12.10;;;14.70;99.90;;;;;;4970510;28;20428;-71
2021/10/18 11:07:00;;;;;;;29.50;8.53;;;14.60;99.90;;;;;;4971638;28;20424;-70
2021/10/18 11:09:51;;;;;;;16.83;7.27;;;14.70;99.90;;;;;;4971721;28;20738;-70
2021/10/18 11:12:17;;;;;;;9.20;6.37;;;14.80;99.90;;;;;;4971251;28;20439;-70
2021/10/18 11:15:00;;;;;;;11.27;6.40;;;14.90;99.90;;;;;;4971460;28;20519;-70
2021/10/18 11:17:29;;;;;;;10.47;6.07;;;14.80;99.90;;;;;;4969058;28;20309;-71
2021/10/18 11:20:00;;;;;;;6.20;5.60;;;14.90;99.90;;;;;;4969112;28;20992;-71
2021/10/18 11:22:35;;;;;;;8.33;7.13;;;14.80;99.90;;;;;;4969527;28;20448;-71
2021/10/18 11:25:04;;;;;;;8.33;6.03;;;14.70;99.90;;;;;;4957962;28;20543;-70
2021/10/18 11:27:35;;;;;;;6.90;5.30;;;14.80;99.90;;;;;;4974355;28;20459;-71
2021/10/18 11:30:12;;;;;;;6.40;5.80;;;14.70;99.90;;;;;;4989888;28;20442;-69
2021/10/18 11:32:38;;;;;;;7.53;6.60;;;14.80;99.90;;;;;;4988595;28;20463;-71
2021/10/18 11:35:06;;;;;;;9.00;5.90;;;15.00;99.90;;;;;;4985905;28;20452;-71
2021/10/18 11:37:53;;;;;;;8.50;5.53;;;15.00;99.90;;;;;;4990845;28;20465;-70
2021/10/18 11:40:22;;;;;;;6.90;6.20;;;15.10;99.90;;;;;;5016904;28;20469;-71
2021/10/18 11:42:56;;;;;;;7.55;6.78;;;15.10;99.90;;;;;;5028996;27;20910;-71
2021/10/18 11:45:24;;;;;;;11.40;6.37;;;15.20;99.90;;;;;;5028832;28;20193;-70
2021/10/18 11:47:50;;;;;;;7.93;6.43;;;15.30;99.90;;;;;;5028539;27;20457;-71
2021/10/18 11:50:21;;;;;;;8.87;6.30;;;15.40;99.80;;;;;;5028705;28;20848;-71
2021/10/18 11:53:02;;;;;;;12.67;6.03;;;15.50;99.60;;;;;;5036562;27;20489;-71
2021/10/18 11:55:35;;;;;;;8.50;6.50;;;15.60;99.30;;;;;;5053371;28;20433;-71
2021/10/18 11:58:04;;;;;;;6.53;5.73;;;15.50;99.10;;;;;;5044226;28;20513;-71
2021/10/18 12:00:32;;;;;;;6.57;5.60;;;15.60;99.50;;;;;;5031329;28;20534;-71
2021/10/18 12:03:01;;;;;;;7.30;6.60;;;15.50;99.50;;;;;;5034089;28;20437;-71
2021/10/18 12:05:44;;;;;;;6.33;5.40;;;15.50;99.30;;;;;;5051462;28;20439;-72
2021/10/18 12:08:11;;;;;;;6.70;5.20;;;15.50;99.30;;;;;;5028839;28;20410;-71
2021/10/18 12:10:39;;;;;;;7.77;5.50;;;15.30;99.50;;;;;;5011312;28;20411;-71
2021/10/18 12:13:18;;;;;;;6.63;5.63;;;15.40;99.50;;;;;;5011576;28;20417;-71
2021/10/18 12:15:47;;;;;;;5.47;4.77;;;15.40;99.40;;;;;;5011362;28;20430;-71
2021/10/18 12:18:14;;;;;;;6.43;5.27;;;15.40;99.30;;;;;;5014174;28;20414;-71
2021/10/18 12:20:41;;;;;;;6.00;5.40;;;15.40;99.20;;;;;;5017058;28;20950;-71
2021/10/18 12:23:16;;;;;;;10.33;5.13;;;15.40;99.30;;;;;;5019397;28;20430;-71
2021/10/18 12:25:55;;;;;;;7.63;6.70;;;15.40;99.10;;;;;;5011116;28;20918;-71
2021/10/18 12:28:30;;;;;;;9.37;5.33;;;15.40;99.20;;;;;;5012400;28;20429;-71
2021/10/18 12:30:57;;;;;;;7.90;5.57;;;15.40;99.40;;;;;;5011475;28;20389;-71
2021/10/18 12:33:35;;;;;;;6.80;4.77;;;15.30;99.40;;;;;;5015709;28;20437;-71
2021/10/18 12:36:02;;;;;;;10.97;5.77;;;15.30;99.60;;;;;;5031030;28;20508;-72
2021/10/18 12:38:29;;;;;;;5.10;4.60;;;15.30;99.60;;;;;;5032364;28;20402;-71
2021/10/18 12:41:18;;;;;;;6.43;5.80;;;15.30;99.80;;;;;;5034868;28;20853;-71
2021/10/18 12:43:49;;;;;;;7.60;6.33;;;15.20;99.90;;;;;;5033215;28;20553;-71
2021/10/18 12:46:14;;;;;;;6.00;5.23;;;15.20;99.40;;;;;;5032965;27;20475;-71
2021/10/18 12:48:40;;;;;;;8.27;5.80;;;15.20;99.50;;;;;;5035029;28;20484;-72
2021/10/18 12:51:05;;;;;;;6.10;5.60;;;15.20;99.50;;;;;;5032387;28;20175;-72
2021/10/18 12:53:31;;;;;;;5.83;5.23;;;15.20;99.30;;;;;;5034681;28;20175;-72
2021/10/18 12:55:58;;;;;;;8.17;5.90;;;15.20;99.20;;;;;;5033021;28;20199;-72
2021/10/18 12:58:25;;;;;;;9.20;6.57;;;15.20;99.20;;;;;;5034549;28;20427;-72
2021/10/18 13:00:51;;;;;;;9.77;7.13;;;15.20;99.50;;;;;;5033990;28;20486;-72
2021/10/18 13:03:19;;;;;;;8.40;6.50;;;15.20;99.60;;;;;;5037741;28;20170;-71
2021/10/18 13:05:55;;;;;;;8.50;6.30;;;15.20;99.40;;;;;;5033758;28;20557;-71
2021/10/18 13:08:23;;;;;;;6.50;5.90;;;15.20;99.50;;;;;;5014090;28;20787;-71
2021/10/18 13:10:52;;;;;;;7.60;6.30;;;15.20;99.30;;;;;;5014348;28;20463;-71
2021/10/18 13:13:23;;;;;;;9.00;5.93;;;15.30;99.50;;;;;;5014352;28;20840;-71
2021/10/18 13:15:50;;;;;;;7.50;6.10;;;15.40;99.40;;;;;;5015095;28;20442;-71
2021/10/18 13:18:17;;;;;;;9.17;6.30;;;15.50;99.30;;;;;;5014878;28;20720;-71
2021/10/18 13:20:44;;;;;;;6.97;5.73;;;15.50;99.40;;;;;;5013928;28;20974;-72
2021/10/18 13:23:11;;;;;;;6.03;5.53;;;15.60;99.40;;;;;;5014249;28;20527;-72
2021/10/18 13:25:39;;;;;;;9.87;6.00;;;15.60;99.30;;;;;;5013647;28;20433;-71
2021/10/18 13:28:06;;;;;;;8.57;6.70;;;15.70;99.30;;;;;;5015397;28;20422;-71
2021/10/18 13:30:32;;;;;;;6.90;6.20;;;15.70;99.40;;;;;;5013858;28;20438;-72
2021/10/18 13:32:59;;;;;;;7.17;6.50;;;15.70;99.60;;;;;;5013871;28;20413;-71
2021/10/18 13:35:26;;;;;;;8.43;7.53;;;15.60;99.90;;;;;;5013578;28;20834;-71
2021/10/18 13:37:52;;;;;;;8.43;6.67;;;15.60;99.90;;;;;;5015598;28;20433;-72
2021/10/18 13:40:19;;;;;;;6.53;5.93;;;15.70;99.90;;;;;;5014096;28;20465;-71
2021/10/18 13:42:46;;;;;;;7.50;6.00;;;15.80;99.90;;;;;;5013342;27;20406;-69
2021/10/18 13:45:15;;;;;;;6.90;5.90;;;15.90;99.90;;;;;;5014023;28;20423;-71
2021/10/18 13:47:40;;;;;;;7.80;7.00;;;15.90;99.90;;;;;;5014880;28;20783;-72
2021/10/18 13:50:06;;;;;;;7.03;6.43;;;15.90;99.90;;;;;;5013268;28;20438;-72
2021/10/18 13:52:33;;;;;;;9.33;7.40;;;15.90;99.70;;;;;;5013180;28;20176;-71
2021/10/18 13:54:59;;;;;;;8.30;7.50;;;15.80;99.80;;;;;;5012929;28;20415;-71
2021/10/18 13:57:26;;;;;;;10.00;6.73;;;15.80;99.90;;;;;;5013061;28;20425;-71
2021/10/18 13:59:52;;;;;;;7.17;6.50;;;15.90;99.90;;;;;;5015323;28;20493;-71